NCAR-RAP Real-Time Weather Data

Output produced by METARs form (01 December 2020  17:10 UTC)
found at http://weather.rap.ucar.edu/surface/
 
KGRI 011653Z 17005KT 10SM CLR 02/M07 A2996 RMK AO2 SLP166 T00171067
KGRI 011553Z 26009KT 10SM CLR 00/M07 A2995 RMK AO2 SLP165 T00001072
KGRI 011453Z 20005KT 10SM CLR M03/M08 A2993 RMK AO2 SLP159 T10331083 53001
KGRI 011353Z 17006KT 10SM CLR M06/M10 A2992 RMK AO2 SLP158 T10611100
KGRI 011253Z AUTO 16005KT 10SM CLR M07/M11 A2993 RMK AO2 SLP161 T10671106
KGRI 011153Z AUTO 16004KT 10SM CLR M07/M11 A2992 RMK AO2 SLP159 T10671106 11022 21067 56007
KGRI 011053Z AUTO 15005KT 10SM CLR M06/M10 A2993 RMK AO2 SLP159 T10611100
KGRI 010953Z AUTO 16006KT 10SM CLR M04/M09 A2993 RMK AO2 SLP153 T10441094
KGRI 010853Z AUTO 17005KT 10SM CLR M04/M09 A2995 RMK AO2 SLP158 T10441094 55007
KGRI 010753Z AUTO 17008KT 10SM CLR M03/M09 A2994 RMK AO2 SLP157 T10331094
KGRI 010653Z AUTO 17011KT 10SM CLR M03/M09 A2996 RMK AO2 SLP162 T10281094
KGRI 010553Z AUTO 17013KT 10SM CLR M02/M10 A2997 RMK AO2 SLP167 T10221100 10017 21022 400891111 58012
KGRI 010453Z AUTO 16013KT 10SM CLR M02/M10 A2998 RMK AO2 SLP173 T10171100
KGRI 010353Z AUTO 17010KT 10SM CLR M02/M11 A3000 RMK AO2 SLP182 T10171106
KGRI 010253Z AUTO 17013KT 10SM CLR 00/M11 A3000 RMK AO2 SLP187 T00001106 58013
KGRI 010153Z 16009KT 10SM CLR 00/M10 A3002 RMK AO2 SLP196 T00001100
KGRI 010053Z 16009KT 10SM CLR 01/M10 A3003 RMK AO2 SLP200 T00061100